Terminal Aerodrome Forecast
Issued by NWS

Home | Current Version | Previous Version | Text Only | Print | Product List | Glossary On
Versions: 1 2 3 4 5 6 7 8 9 10 11 12 13 14 15 16 17
000
FTUS43 KMQT 062336
TAFIWD
TAF
KIWD 062336Z 0700/0724 26007KT P6SM SCT200
     FM070200 25006KT P6SM BKN100
     FM070600 22007KT 5SM -SN OVC035
     FM071000 24008KT 3SM -SN OVC020
     FM071400 28009KT P6SM OVC020
      AMD LTD TO CLD VIS AND WIND=

USA.gov is the U.S. government's official web portal to all federal, state and local government web resources and services.